Time;durP1;ratioP1;P1;durP2;ratioP2;P2;SDS_P1;SDS_P2;PMS_P1;PMS_P2;Temp;Humidity;BMP_temperature;BMP_pressure;BME280_temperature;BME280_humidity;BME280_pressure;Samples;Min_cycle;Max_cycle;Signal;HPM_P1;HPM_P2
2021/10/12 00:01:22;;;;;;;;;;;;;;;13.36;93.04;99442.25;5011758;28;819;-57
2021/10/12 00:03:49;;;;;;;;;;;;;;;13.36;92.99;99434.69;5011713;28;830;-57
2021/10/12 00:06:16;;;;;;;;;;;;;;;13.39;93.01;99438.59;5011656;28;869;-57
2021/10/12 00:08:42;;;;;;;;;;;;;;;13.37;93.20;99438.25;5011533;28;1886;-57
2021/10/12 00:11:08;;;;;;;;;;;;;;;13.35;93.06;99432.34;5011544;28;965;-57
2021/10/12 00:13:37;;;;;;;;;;;;;;;13.31;93.26;99432.41;5011546;28;933;-57
2021/10/12 00:16:04;;;;;;;;;;;;;;;13.28;93.13;99431.28;5011659;28;988;-58
2021/10/12 00:18:30;;;;;;;;;;;;;;;13.25;93.35;99429.34;5011272;28;1223;-57
2021/10/12 00:20:58;;;;;;;;;;;;;;;13.24;93.61;99419.44;5011599;28;810;-57
2021/10/12 00:23:25;;;;;;;;;;;;;;;13.23;93.35;99417.88;5011513;28;846;-58
2021/10/12 00:25:52;;;;;;;;;;;;;;;13.19;93.41;99414.41;5011769;28;924;-58
2021/10/12 00:28:18;;;;;;;;;;;;;;;13.17;93.58;99411.28;5011210;28;1911;-58
2021/10/12 00:30:46;;;;;;;;;;;;;;;13.17;93.55;99404.97;5011265;28;919;-58
2021/10/12 00:33:13;;;;;;;;;;;;;;;13.13;93.63;99399.47;5011457;28;851;-58
2021/10/12 00:35:40;;;;;;;;;;;;;;;13.11;93.82;99393.56;4993942;28;827;-58
2021/10/12 00:38:10;;;;;;;;;;;;;;;13.10;93.86;99394.00;5011373;28;845;-58
2021/10/12 00:40:37;;;;;;;;;;;;;;;13.08;94.19;99392.44;5014170;28;878;-58
2021/10/12 00:43:05;;;;;;;;;;;;;;;13.05;93.92;99384.19;5014988;28;815;-58
2021/10/12 00:45:32;;;;;;;;;;;;;;;13.03;94.27;99384.63;5015161;28;963;-58
2021/10/12 00:48:00;;;;;;;;;;;;;;;13.03;94.34;99389.38;5014770;28;1886;-58
2021/10/12 00:50:28;;;;;;;;;;;;;;;13.05;94.25;99392.50;5014819;28;863;-58
2021/10/12 00:52:56;;;;;;;;;;;;;;;13.06;94.42;99386.53;5015101;28;882;-58
2021/10/12 00:55:23;;;;;;;;;;;;;;;13.11;94.43;99379.69;5014836;28;822;-58
2021/10/12 00:57:51;;;;;;;;;;;;;;;13.14;94.24;99366.97;5014602;28;815;-58
2021/10/12 01:00:17;;;;;;;;;;;;;;;13.13;94.59;99357.09;5014837;28;835;-58
2021/10/12 01:02:44;;;;;;;;;;;;;;;13.13;94.56;99355.09;5014641;28;882;-58
2021/10/12 01:05:11;;;;;;;;;;;;;;;13.15;94.47;99360.97;5014665;28;843;-58
2021/10/12 01:07:37;;;;;;;;;;;;;;;13.13;94.65;99362.63;5014542;28;957;-58
2021/10/12 01:10:05;;;;;;;;;;;;;;;13.10;94.58;99366.25;4997068;28;1883;-58
2021/10/12 01:12:32;;;;;;;;;;;;;;;13.07;94.48;99362.34;5014465;28;795;-58
2021/10/12 01:14:59;;;;;;;;;;;;;;;13.07;94.76;99367.91;5014600;28;866;-58
2021/10/12 01:17:26;;;;;;;;;;;;;;;13.11;94.94;99365.06;5014362;28;1343;-58
2021/10/12 01:19:52;;;;;;;;;;;;;;;13.10;94.83;99371.81;5014404;28;866;-58
2021/10/12 01:22:19;;;;;;;;;;;;;;;13.10;94.88;99369.81;5014314;28;827;-58
2021/10/12 01:24:46;;;;;;;;;;;;;;;13.07;94.84;99377.00;5014231;28;972;-58
2021/10/12 01:27:12;;;;;;;;;;;;;;;13.06;94.91;99372.66;4996505;28;1682;-58
2021/10/12 01:29:39;;;;;;;;;;;;;;;13.08;95.13;99377.81;5014315;28;1913;-58
2021/10/12 01:32:05;;;;;;;;;;;;;;;13.08;95.02;99375.03;5014143;28;846;-58
2021/10/12 01:34:32;;;;;;;;;;;;;;;13.06;94.92;99369.91;5014021;28;791;-58
2021/10/12 01:36:59;;;;;;;;;;;;;;;13.08;95.08;99364.69;5014103;28;855;-58
2021/10/12 01:39:25;;;;;;;;;;;;;;;13.08;94.95;99356.38;5013926;28;905;-58
2021/10/12 01:41:51;;;;;;;;;;;;;;;13.12;95.14;99352.72;5014122;28;906;-58
2021/10/12 01:44:18;;;;;;;;;;;;;;;13.14;95.16;99347.53;5013817;28;902;-58
2021/10/12 01:46:46;;;;;;;;;;;;;;;13.17;95.06;99346.69;5013912;28;818;-58
2021/10/12 01:49:12;;;;;;;;;;;;;;;13.20;94.91;99352.13;5013775;28;1886;-58
2021/10/12 01:51:38;;;;;;;;;;;;;;;13.19;94.92;99336.72;5013156;28;890;-58
2021/10/12 01:54:16;;;;;;;;;;;;;;;13.19;94.96;99313.75;5013746;28;901;-58
2021/10/12 01:56:43;;;;;;;;;;;;;;;13.19;95.03;99299.88;5013733;28;830;-58
2021/10/12 01:59:09;;;;;;;;;;;;;;;13.20;95.03;99284.75;5013654;28;834;-58
2021/10/12 02:01:36;;;;;;;;;;;;;;;13.19;94.85;99284.00;5013614;28;881;-58
2021/10/12 02:04:02;;;;;;;;;;;;;;;13.21;95.09;99289.88;5013477;28;1011;-58
2021/10/12 02:06:29;;;;;;;;;;;;;;;13.24;94.91;99288.22;5013376;28;965;-58
2021/10/12 02:08:55;;;;;;;;;;;;;;;13.25;94.95;99287.81;5013563;28;1910;-58
2021/10/12 02:11:22;;;;;;;;;;;;;;;13.26;94.91;99283.81;5013606;28;827;-58
2021/10/12 02:13:48;;;;;;;;;;;;;;;13.28;94.88;99286.97;5013677;28;870;-58
2021/10/12 02:16:15;;;;;;;;;;;;;;;13.32;94.90;99286.09;5013291;28;947;-58
2021/10/12 02:18:41;;;;;;;;;;;;;;;13.30;94.94;99275.44;5012970;28;1280;-58
2021/10/12 02:21:08;;;;;;;;;;;;;;;13.28;94.65;99267.53;5013388;28;902;-58
2021/10/12 02:23:34;;;;;;;;;;;;;;;13.30;94.74;99285.75;5013191;28;929;-58
2021/10/12 02:26:01;;;;;;;;;;;;;;;13.27;94.60;99285.38;5012915;28;846;-58
2021/10/12 02:28:28;;;;;;;;;;;;;;;13.25;94.84;99287.03;4995502;28;1906;-58
2021/10/12 02:30:54;;;;;;;;;;;;;;;13.22;94.81;99287.88;5012975;28;949;-58
2021/10/12 02:33:20;;;;;;;;;;;;;;;13.21;94.51;99289.88;5012963;28;856;-58
2021/10/12 02:35:47;;;;;;;;;;;;;;;13.22;94.70;99276.78;5012952;28;835;-58
2021/10/12 02:38:14;;;;;;;;;;;;;;;13.23;94.92;99265.25;5013106;28;847;-58
2021/10/12 02:40:40;;;;;;;;;;;;;;;13.25;94.90;99259.28;5012833;28;867;-58
2021/10/12 02:43:07;;;;;;;;;;;;;;;13.26;94.68;99267.16;5012796;28;946;-58
2021/10/12 02:45:34;;;;;;;;;;;;;;;13.23;94.42;99265.25;5012992;28;856;-58
2021/10/12 02:48:00;;;;;;;;;;;;;;;13.25;94.50;99257.28;5012698;28;854;-58
2021/10/12 02:50:26;;;;;;;;;;;;;;;13.25;94.37;99260.06;5012697;28;866;-58
2021/10/12 02:52:53;;;;;;;;;;;;;;;13.26;94.17;99260.84;5012560;28;1129;-58
2021/10/12 02:55:20;;;;;;;;;;;;;;;13.28;94.57;99261.97;5012517;28;843;-58
2021/10/12 02:57:46;;;;;;;;;;;;;;;13.22;94.06;99263.69;4994973;28;950;-58
2021/10/12 03:00:13;;;;;;;;;;;;;;;13.16;94.01;99272.97;5012460;28;983;-58
2021/10/12 03:02:40;;;;;;;;;;;;;;;13.11;94.39;99265.94;5011664;28;945;-58
2021/10/12 03:05:07;;;;;;;;;;;;;;;13.08;94.30;99262.06;5012712;28;824;-58
2021/10/12 03:07:34;;;;;;;;;;;;;;;13.05;94.43;99270.44;5012408;28;933;-58
2021/10/12 03:10:02;;;;;;;;;;;;;;;13.02;94.59;99261.00;5012091;28;1957;-58
2021/10/12 03:12:28;;;;;;;;;;;;;;;13.02;94.57;99265.78;5012487;28;947;-58
2021/10/12 03:14:55;;;;;;;;;;;;;;;13.02;94.46;99265.78;5012479;28;875;-58
2021/10/12 03:17:22;;;;;;;;;;;;;;;13.04;94.65;99266.13;5012395;28;1010;-57
2021/10/12 03:19:48;;;;;;;;;;;;;;;13.06;94.52;99267.25;5012104;28;799;-57
2021/10/12 03:22:15;;;;;;;;;;;;;;;13.08;94.63;99269.59;5012136;28;867;-57
2021/10/12 03:24:43;;;;;;;;;;;;;;;13.10;94.48;99267.19;5011884;28;871;-57
2021/10/12 03:27:10;;;;;;;;;;;;;;;13.11;94.46;99257.63;5012253;28;811;-58
2021/10/12 03:29:37;;;;;;;;;;;;;;;13.11;94.50;99256.84;5012010;28;1985;-58
2021/10/12 03:32:05;;;;;;;;;;;;;;;13.14;94.36;99247.66;5012281;28;819;-58
2021/10/12 03:34:32;;;;;;;;;;;;;;;13.13;94.46;99248.88;4994358;28;1381;-58
2021/10/12 03:37:00;;;;;;;;;;;;;;;13.11;94.51;99254.84;5011933;28;850;-58
2021/10/12 03:39:27;;;;;;;;;;;;;;;13.14;94.52;99262.28;5011972;28;855;-57
2021/10/12 03:41:53;;;;;;;;;;;;;;;13.13;94.16;99248.88;5012164;28;826;-57
2021/10/12 03:44:21;;;;;;;;;;;;;;;13.10;94.44;99242.19;5011892;28;902;-56
2021/10/12 03:46:47;;;;;;;;;;;;;;;13.12;94.40;99241.75;5011810;28;870;-58
2021/10/12 03:49:14;;;;;;;;;;;;;;;13.12;94.31;99241.75;4994325;28;1989;-57
2021/10/12 03:52:06;;;;;;;;;;;;;;;13.10;94.24;99242.19;5011817;28;563;-57
2021/10/12 03:54:33;;;;;;;;;;;;;;;13.17;94.05;99244.78;5011585;28;1933;-57
2021/10/12 03:56:59;;;;;;;;;;;;;;;13.19;93.87;99244.38;5011741;28;819;-58
2021/10/12 03:59:26;;;;;;;;;;;;;;;13.22;93.91;99238.72;5011722;28;926;-58
2021/10/12 04:01:53;;;;;;;;;;;;;;;13.21;93.83;99250.25;5011855;28;927;-58
2021/10/12 04:04:19;;;;;;;;;;;;;;;13.20;93.51;99243.13;5011672;28;870;-58
2021/10/12 04:06:45;;;;;;;;;;;;;;;13.24;93.80;99230.72;5011655;28;877;-58
2021/10/12 04:09:12;;;;;;;;;;;;;;;13.31;93.51;99215.16;5011576;28;1961;-57
2021/10/12 04:11:39;;;;;;;;;;;;;;;13.37;93.53;99207.84;5011927;28;815;-57
2021/10/12 04:14:04;;;;;;;;;;;;;;;13.37;93.28;99213.41;5013580;28;919;-57
2021/10/12 04:16:32;;;;;;;;;;;;;;;13.31;92.94;99204.81;5015722;28;996;-58
2021/10/12 04:18:59;;;;;;;;;;;;;;;13.26;92.88;99202.56;5015186;28;1506;-58
2021/10/12 04:21:26;;;;;;;;;;;;;;;13.19;92.62;99197.97;5015501;28;796;-58
2021/10/12 04:23:52;;;;;;;;;;;;;;;13.16;92.92;99200.81;5015449;28;942;-58
2021/10/12 04:26:19;;;;;;;;;;;;;;;13.14;92.54;99206.81;5015734;28;883;-58
2021/10/12 04:28:46;;;;;;;;;;;;;;;13.14;92.92;99197.69;5015162;28;1911;-57
2021/10/12 04:31:13;;;;;;;;;;;;;;;13.10;92.86;99188.69;5015319;28;867;-57
2021/10/12 04:33:40;;;;;;;;;;;;;;;13.04;92.38;99194.00;5015139;28;878;-57
2021/10/12 04:36:06;;;;;;;;;;;;;;;13.04;92.47;99189.22;5015248;28;834;-57
2021/10/12 04:38:33;;;;;;;;;;;;;;;13.00;92.33;99182.97;5015379;28;866;-58
2021/10/12 04:41:02;;;;;;;;;;;;;;;12.99;92.34;99188.94;4997577;28;874;-57
2021/10/12 04:43:28;;;;;;;;;;;;;;;13.00;92.45;99198.84;5015099;28;826;-58
2021/10/12 04:45:55;;;;;;;;;;;;;;;13.02;92.15;99190.88;5015043;28;842;-57
2021/10/12 04:48:21;;;;;;;;;;;;;;;13.04;92.02;99191.22;4997428;28;1939;-57
2021/10/12 04:50:48;;;;;;;;;;;;;;;13.00;91.78;99180.19;5014927;28;843;-57
2021/10/12 04:53:15;;;;;;;;;;;;;;;12.96;92.00;99176.75;5014701;28;918;-57
2021/10/12 04:55:41;;;;;;;;;;;;;;;12.95;92.05;99172.41;5014779;28;949;-55
2021/10/12 04:58:09;;;;;;;;;;;;;;;13.00;91.91;99173.88;5014985;28;884;-57
2021/10/12 05:00:35;;;;;;;;;;;;;;;13.05;92.39;99176.91;5014603;28;873;-58
2021/10/12 05:03:02;;;;;;;;;;;;;;;13.12;92.36;99172.38;5014760;28;874;-58
2021/10/12 05:05:27;;;;;;;;;;;;;;;13.11;92.11;99163.28;5014614;28;819;-58
2021/10/12 05:07:54;;;;;;;;;;;;;;;13.03;92.12;99157.13;5014548;28;907;-57
2021/10/12 05:10:21;;;;;;;;;;;;;;;12.99;92.09;99158.44;5014487;28;1937;-58
2021/10/12 05:17:58;;;;;;;;;;;;;;;12.89;92.53;99160.28;5412368;23;1727;-59
2021/10/12 05:20:25;;;;;;;;;;;;;;;12.88;92.45;99156.69;5014379;28;834;-59
2021/10/12 05:22:52;;;;;;;;;;;;;;;12.81;92.24;99162.44;5014367;28;885;-59
2021/10/12 05:25:18;;;;;;;;;;;;;;;12.71;92.31;99169.00;5013682;28;909;-59
2021/10/12 05:27:45;;;;;;;;;;;;;;;12.61;92.77;99179.16;5014274;28;826;-59
2021/10/12 05:30:11;;;;;;;;;;;;;;;12.54;93.01;99179.31;5014138;28;1973;-59
2021/10/12 05:32:38;;;;;;;;;;;;;;;12.53;93.29;99185.31;5014122;28;787;-59
2021/10/12 05:35:05;;;;;;;;;;;;;;;12.54;93.39;99198.72;5014193;28;834;-59
2021/10/12 05:37:32;;;;;;;;;;;;;;;12.56;93.19;99201.06;5014077;28;862;-59
2021/10/12 05:39:59;;;;;;;;;;;;;;;12.52;93.38;99206.66;5014046;28;909;-58
2021/10/12 05:42:26;;;;;;;;;;;;;;;12.48;93.49;99205.19;5013955;28;913;-62
2021/10/12 05:44:53;;;;;;;;;;;;;;;12.44;93.71;99192.22;5013942;28;873;-66
2021/10/12 05:47:20;;;;;;;;;;;;;;;12.41;93.80;99168.09;5013732;28;818;-63
2021/10/12 05:49:47;;;;;;;;;;;;;;;12.38;93.71;99152.34;5013796;28;1953;-69
2021/10/12 05:52:17;;;;;;;;;;;;;;;12.33;94.13;99155.66;5013806;28;854;-69
2021/10/12 05:54:56;;;;;;;;;;;;;;;12.31;94.01;99160.03;4996105;28;1292;-60
2021/10/12 05:58:11;;;;;;;;;;;;;;;12.25;94.47;99181.94;5013733;28;881;-61
2021/10/12 06:00:10;;;;;;;;;;;;;;;12.21;94.62;99197.88;5002747;28;1175;-58
2021/10/12 06:02:36;;;;;;;;;;;;;;;12.20;94.90;99213.69;5014024;28;783;-58
2021/10/12 06:05:03;;;;;;;;;;;;;;;12.24;94.73;99219.94;5013824;28;815;-59
2021/10/12 06:07:30;;;;;;;;;;;;;;;12.29;94.72;99232.53;4996129;28;874;-59
2021/10/12 06:09:56;;;;;;;;;;;;;;;12.35;95.10;99224.47;5013883;28;1914;-60
2021/10/12 06:12:23;;;;;;;;;;;;;;;12.34;94.76;99209.84;5013609;28;811;-63
2021/10/12 06:14:50;;;;;;;;;;;;;;;12.29;94.71;99202.06;5013671;28;824;-62
2021/10/12 06:17:17;;;;;;;;;;;;;;;12.31;94.92;99202.41;5013547;28;1364;-68
2021/10/12 06:19:44;;;;;;;;;;;;;;;12.31;95.05;99215.47;4996035;28;1197;-66
2021/10/12 06:22:10;;;;;;;;;;;;;;;12.31;95.23;99232.06;5013777;28;830;-68
2021/10/12 06:24:36;;;;;;;;;;;;;;;12.32;94.89;99250.28;5013212;28;889;-64
2021/10/12 06:27:02;;;;;;;;;;;;;;;12.33;95.16;99255.41;5013109;28;803;-64
2021/10/12 06:29:29;;;;;;;;;;;;;;;12.35;95.07;99246.66;5012982;28;1938;-70
2021/10/12 06:31:55;;;;;;;;;;;;;;;12.34;94.87;99237.56;5012991;28;835;-69
2021/10/12 06:34:59;;;;;;;;;;;;;;;12.34;95.12;99228.47;5013065;28;826;-74
2021/10/12 06:37:27;;;;;;;;;;;;;;;12.33;95.34;99197.22;5005897;28;926;-74
2021/10/12 06:39:54;;;;;;;;;;;;;;;12.35;95.43;99188.44;4995707;28;1180;-71
2021/10/12 06:42:20;;;;;;;;;;;;;;;12.27;95.01;99187.84;5012832;28;869;-72
2021/10/12 06:44:48;;;;;;;;;;;;;;;12.22;95.33;99183.56;5012763;28;886;-71
2021/10/12 06:47:14;;;;;;;;;;;;;;;12.18;95.61;99162.69;5012705;28;870;-69
2021/10/12 06:49:41;;;;;;;;;;;;;;;12.14;96.01;99164.75;5012635;28;1914;-68
2021/10/12 06:52:07;;;;;;;;;;;;;;;12.12;95.96;99156.09;5012660;28;849;-64
2021/10/12 06:54:34;;;;;;;;;;;;;;;12.12;96.30;99158.88;5012618;28;787;-65
2021/10/12 06:57:02;;;;;;;;;;;;;;;12.12;95.94;99161.63;5012595;28;889;-64
2021/10/12 06:59:29;;;;;;;;;;;;;;;12.17;96.22;99152.84;5012473;28;915;-68
2021/10/12 07:01:55;;;;;;;;;;;;;;;12.18;95.95;99157.16;5012782;28;854;-66
2021/10/12 07:04:23;;;;;;;;;;;;;;;12.19;96.15;99158.72;5012470;28;803;-65
2021/10/12 07:06:49;;;;;;;;;;;;;;;12.20;96.33;99152.72;5012328;28;846;-66
2021/10/12 07:09:16;;;;;;;;;;;;;;;12.23;96.24;99159.44;5012437;28;1886;-66
2021/10/12 07:11:43;;;;;;;;;;;;;;;12.25;96.09;99162.56;5012515;28;842;-66
2021/10/12 07:14:10;;;;;;;;;;;;;;;12.30;96.01;99155.72;5012273;28;857;-66
2021/10/12 07:16:36;;;;;;;;;;;;;;;12.34;96.51;99156.41;5012304;28;932;-65
2021/10/12 07:19:02;;;;;;;;;;;;;;;12.38;96.18;99155.13;5012076;28;1255;-65
2021/10/12 07:21:29;;;;;;;;;;;;;;;12.44;96.47;99147.88;5012215;28;783;-63
2021/10/12 07:23:55;;;;;;;;;;;;;;;12.49;96.04;99154.09;5012134;28;846;-66
2021/10/12 07:26:22;;;;;;;;;;;;;;;12.52;96.22;99145.69;5012177;28;798;-66
2021/10/12 07:28:49;;;;;;;;;;;;;;;12.60;96.12;99140.78;4994386;28;1919;-67
2021/10/12 07:31:16;;;;;;;;;;;;;;;12.64;96.16;99145.00;4994437;28;1418;-66
2021/10/12 07:33:42;;;;;;;;;;;;;;;12.71;95.98;99134.97;5012027;28;807;-65
2021/10/12 07:36:09;;;;;;;;;;;;;;;12.77;96.24;99127.69;4994354;28;1320;-65
2021/10/12 07:38:37;;;;;;;;;;;;;;;12.73;95.56;99136.09;5010392;28;1472;-65
2021/10/12 07:41:04;;;;;;;;;;;;;;;12.70;95.64;99131.41;5011968;28;873;-65
2021/10/12 07:43:31;;;;;;;;;;;;;;;12.65;95.49;99129.16;5012142;28;807;-65
2021/10/12 07:45:57;;;;;;;;;;;;;;;12.64;95.46;99120.06;5011821;28;811;-65
2021/10/12 07:48:24;;;;;;;;;;;;;;;12.62;95.58;99103.09;5011387;28;1889;-65
2021/10/12 07:50:50;;;;;;;;;;;;;;;12.61;95.52;99084.09;5011818;28;819;-65
2021/10/12 07:53:17;;;;;;;;;;;;;;;12.63;95.75;99078.91;5011822;28;886;-67
2021/10/12 07:55:53;;;;;;;;;;;;;;;12.69;95.84;99077.16;5011760;28;866;-67
2021/10/12 07:58:19;;;;;;;;;;;;;;;12.71;95.55;99069.19;5011777;28;866;-65
2021/10/12 08:00:46;;;;;;;;;;;;;;;12.80;95.80;99071.34;5011685;28;930;-65
2021/10/12 08:03:14;;;;;;;;;;;;;;;12.89;95.50;99074.31;5011689;28;857;-62
2021/10/12 08:05:40;;;;;;;;;;;;;;;12.99;95.29;99076.00;5011683;28;806;-63
2021/10/12 08:08:07;;;;;;;;;;;;;;;13.10;94.66;99077.72;5011869;28;846;-62
2021/10/12 08:10:35;;;;;;;;;;;;;;;13.15;94.63;99075.19;5011802;28;1882;-62
2021/10/12 08:13:04;;;;;;;;;;;;;;;13.21;94.17;99075.44;5011626;28;869;-61
2021/10/12 08:15:31;;;;;;;;;;;;;;;13.21;93.64;99083.78;5011442;28;855;-61
2021/10/12 08:17:58;;;;;;;;;;;;;;;13.26;93.93;99080.44;5011579;28;1281;-62
2021/10/12 08:20:28;;;;;;;;;;;;;;;13.34;94.18;99081.84;5011558;28;854;-61
2021/10/12 08:22:54;;;;;;;;;;;;;;;13.40;93.43;99093.97;5011487;28;815;-61
2021/10/12 08:25:21;;;;;;;;;;;;;;;13.50;92.88;99099.66;5011512;28;826;-61
2021/10/12 08:27:47;;;;;;;;;;;;;;;13.52;92.93;99097.22;5011385;28;831;-61
2021/10/12 08:30:14;;;;;;;;;;;;;;;13.50;92.84;99105.22;5011423;28;1914;-61
2021/10/12 08:32:43;;;;;;;;;;;;;;;13.52;92.91;99111.88;5011634;28;827;-61
2021/10/12 08:35:10;;;;;;;;;;;;;;;13.46;92.26;99099.75;5011399;28;850;-61
2021/10/12 08:37:37;;;;;;;;;;;;;;;13.41;92.80;99089.19;5011701;28;870;-62
2021/10/12 08:40:09;;;;;;;;;;;;;;;13.42;92.95;99086.00;5011906;28;898;-62
2021/10/12 08:42:39;;;;;;;;;;;;;;;13.50;92.73;99077.44;5011408;28;807;-62
2021/10/12 08:45:07;;;;;;;;;;;;;;;13.46;92.35;99074.75;5011211;28;795;-62
2021/10/12 08:47:34;;;;;;;;;;;;;;;13.44;92.34;99071.66;5011313;28;819;-62
2021/10/12 08:50:02;;;;;;;;;;;;;;;13.47;92.12;99073.56;5011220;28;1882;-63
2021/10/12 08:52:28;;;;;;;;;;;;;;;13.50;92.00;99072.66;5011314;28;889;-64
2021/10/12 08:54:55;;;;;;;;;;;;;;;13.47;91.75;99060.44;5011127;28;996;-64
2021/10/12 08:57:29;;;;;;;;;;;;;;;13.43;91.54;99064.56;5011342;28;846;-63
2021/10/12 08:59:56;;;;;;;;;;;;;;;13.51;91.42;99067.91;5011351;28;811;-64
2021/10/12 09:02:25;;;;;;;;;;;;;;;13.56;91.40;99053.47;5014767;28;830;-62
2021/10/12 09:04:53;;;;;;;;;;;;;;;13.55;91.39;99052.72;5014669;28;897;-64
2021/10/12 09:07:20;;;;;;;;;;;;;;;13.61;91.27;99050.16;4997001;28;1232;-64
2021/10/12 09:09:47;;;;;;;;;;;;;;;13.65;90.85;99059.94;5014501;28;1890;-62
2021/10/12 09:12:14;;;;;;;;;;;;;;;13.64;90.91;99052.84;5014506;28;866;-65
2021/10/12 09:14:57;;;;;;;;;;;;;;;13.55;90.77;99038.81;5014412;28;862;-64
2021/10/12 09:17:33;;;;;;;;;;;;;;;13.51;91.07;99046.47;5014493;28;1152;-66
2021/10/12 09:20:00;;;;;;;;;;;;;;;13.43;90.87;99047.91;5014702;28;783;-65
2021/10/12 09:22:27;;;;;;;;;;;;;;;13.30;90.77;99058.19;5014655;28;814;-66
2021/10/12 09:25:05;;;;;;;;;;;;;;;13.37;91.47;99053.19;5014639;28;858;-66
2021/10/12 09:27:44;;;;;;;;;;;;;;;13.48;90.62;99047.34;5014286;28;850;-66
2021/10/12 09:30:12;;;;;;;;;;;;;;;13.50;90.84;99053.22;5014424;28;1967;-67
2021/10/12 09:32:38;;;;;;;;;;;;;;;13.61;91.09;99039.84;5014081;28;815;-67
2021/10/12 09:35:05;;;;;;;;;;;;;;;13.85;91.11;99037.53;4996557;28;1284;-67
2021/10/12 09:37:32;;;;;;;;;;;;;;;14.01;90.16;99027.53;5014104;28;874;-68
2021/10/12 09:40:17;;;;;;;;;;;;;;;14.04;88.91;99027.44;5013966;28;851;-67
2021/10/12 09:42:44;;;;;;;;;;;;;;;13.85;88.70;99015.31;5014685;28;779;-68
2021/10/12 09:45:10;;;;;;;;;;;;;;;13.84;88.10;98999.09;5014283;28;764;-69
2021/10/12 09:47:39;;;;;;;;;;;;;;;13.85;87.94;99003.44;5014136;28;819;-69
2021/10/12 09:50:10;;;;;;;;;;;;;;;13.93;87.94;99001.97;5014043;28;1886;-67
2021/10/12 09:52:37;;;;;;;;;;;;;;;13.88;87.77;99011.63;5013811;28;804;-70
2021/10/12 09:55:04;;;;;;;;;;;;;;;13.74;87.67;99014.88;5013701;28;846;-67
2021/10/12 09:57:32;;;;;;;;;;;;;;;13.52;88.16;99025.03;5013968;28;794;-65
2021/10/12 09:59:59;;;;;;;;;;;;;;;13.32;88.25;99033.56;5013654;28;822;-65
2021/10/12 10:02:34;;;;;;;;;;;;;;;13.10;88.72;99016.69;5013860;28;897;-63
2021/10/12 10:05:00;;;;;;;;;;;;;;;13.05;89.21;99010.44;5013596;28;831;-61
2021/10/12 10:07:30;;;;;;;;;;;;;;;13.02;89.16;98996.69;4995947;28;1212;-61
2021/10/12 10:09:56;;;;;;;;;;;;;;;12.80;90.10;98997.28;5013335;28;1890;-67
2021/10/12 10:12:25;;;;;;;;;;;;;;;12.68;91.06;98986.13;5012942;28;913;-67
2021/10/12 10:14:51;;;;;;;;;;;;;;;12.62;91.28;98985.88;5013365;28;791;-66
2021/10/12 10:17:19;;;;;;;;;;;;;;;12.70;91.98;98973.38;4995616;28;1373;-67
2021/10/12 10:19:46;;;;;;;;;;;;;;;12.79;91.82;98965.22;5013331;28;819;-67
2021/10/12 10:22:31;;;;;;;;;;;;;;;12.81;91.34;98948.91;4995624;28;1185;-66
2021/10/12 10:24:59;;;;;;;;;;;;;;;12.88;91.63;98947.94;5013243;28;811;-68
2021/10/12 10:27:36;;;;;;;;;;;;;;;13.06;91.56;98955.75;4995461;28;1390;-70
2021/10/12 10:30:21;;;;;;;;;;;;;;;13.21;91.35;98950.59;5013070;28;1914;-68
2021/10/12 10:32:48;;;;;;;;;;;;;;;13.27;90.12;98949.59;5013756;28;847;-68
2021/10/12 10:35:15;;;;;;;;;;;;;;;13.32;90.08;98945.53;5013219;28;851;-68
2021/10/12 10:37:54;;;;;;;;;;;;;;;13.40;89.96;98946.06;4995647;28;1197;-67
2021/10/12 10:40:30;;;;;;;;;;;;;;;13.20;89.15;98958.09;5012822;28;878;-69
2021/10/12 10:42:57;;;;;;;;;;;;;;;13.12;89.94;98942.91;4995425;28;1317;-67
2021/10/12 10:45:44;;;;;;;;;;;;;;;13.05;89.49;98943.09;5012978;28;871;-67
2021/10/12 10:48:13;;;;;;;;;;;;;;;12.88;89.94;98922.97;5012784;28;1061;-66
2021/10/12 10:50:40;;;;;;;;;;;;;;;12.84;90.22;98930.63;5012728;28;1957;-66
2021/10/12 10:53:09;;;;;;;;;;;;;;;12.88;89.85;98904.34;5012905;28;791;-67
2021/10/12 10:55:45;;;;;;;;;;;;;;;12.96;89.34;98899.38;5012663;28;878;-66
2021/10/12 10:58:35;;;;;;;;;;;;;;;13.17;88.70;98884.09;5012689;28;807;-67
2021/10/12 11:01:02;;;;;;;;;;;;;;;13.34;88.01;98886.81;5012587;28;818;-67
2021/10/12 11:03:35;;;;;;;;;;;;;;;13.35;87.72;98900.22;5012446;28;873;-65
2021/10/12 11:06:05;;;;;;;;;;;;;;;13.31;87.72;98909.88;5013238;28;834;-66
2021/10/12 11:08:33;;;;;;;;;;;;;;;13.17;87.50;98919.38;5012303;28;1936;-65
2021/10/12 11:11:09;;;;;;;;;;;;;;;13.13;87.91;98896.53;5012640;28;811;-65
2021/10/12 11:13:36;;;;;;;;;;;;;;;13.14;87.80;98889.75;5012343;28;886;-65
2021/10/12 11:16:12;;;;;;;;;;;;;;;12.93;88.05;98883.63;5012214;28;1149;-64
2021/10/12 11:18:40;;;;;;;;;;;;;;;12.70;89.07;98884.66;5012440;28;1374;-64
2021/10/12 11:21:08;;;;;;;;;;;;;;;12.58;90.11;98883.41;5012375;28;815;-64
2021/10/12 11:23:36;;;;;;;;;;;;;;;12.44;90.58;98884.59;5011608;28;783;-63
2021/10/12 11:26:06;;;;;;;;;;;;;;;12.38;91.19;98883.56;4994490;28;1212;-63
2021/10/12 11:28:34;;;;;;;;;;;;;;;12.32;91.38;98882.53;5012081;28;2024;-63
2021/10/12 11:31:03;;;;;;;;;;;;;;;12.20;91.58;98889.56;4994447;28;869;-63
2021/10/12 11:33:30;;;;;;;;;;;;;;;12.09;92.22;98882.75;5012045;28;889;-65
2021/10/12 11:35:57;;;;;;;;;;;;;;;11.96;92.42;98877.91;5012006;28;835;-68
2021/10/12 11:38:28;;;;;;;;;;;;;;;11.88;92.92;98868.22;5012004;28;826;-69
2021/10/12 11:40:54;;;;;;;;;;;;;;;11.87;93.11;98858.34;4994503;28;1221;-68
2021/10/12 11:43:31;;;;;;;;;;;;;;;11.77;92.68;98845.53;5011848;28;814;-67
2021/10/12 11:49:14;;;;;;;;;;;;;;;11.52;93.71;98846.94;5005140;28;1953;-66
2021/10/12 11:51:40;;;;;;;;;;;;;;;11.38;93.40;98841.75;5011907;28;815;-66
2021/10/12 11:54:07;;;;;;;;;;;;;;;11.33;93.96;98831.19;5011842;28;894;-67
2021/10/12 12:21:02;;;;;;;;;;;;;;;11.40;92.21;98817.19;5007062;28;1372;-69
2021/10/12 12:23:41;;;;;;;;;;;;;;;11.55;91.40;98817.63;4993902;28;1212;-68
2021/10/12 12:26:11;;;;;;;;;;;;;;;11.66;91.02;98826.44;4994087;28;1315;-70
2021/10/12 12:28:37;;;;;;;;;;;;;;;11.75;90.46;98828.59;5011835;28;1914;-71
2021/10/12 12:31:19;;;;;;;;;;;;;;;11.76;89.61;98825.41;4994187;28;1279;-70
2021/10/12 12:33:47;;;;;;;;;;;;;;;11.68;89.32;98828.78;4993708;28;1181;-69
2021/10/12 12:48:36;;;;;;;;;;;;;;;11.31;90.05;98842.69;5015181;28;1891;-69
2021/10/12 12:51:06;;;;;;;;;;;;;;;11.33;90.30;98820.13;5015344;28;783;-68
2021/10/12 12:53:48;;;;;;;;;;;;;;;11.37;90.10;98832.69;4997345;28;1292;-68
2021/10/12 12:56:17;;;;;;;;;;;;;;;11.37;89.39;98843.75;5014889;28;890;-66
2021/10/12 12:58:45;;;;;;;;;;;;;;;11.38;89.68;98836.22;5015585;28;755;-64
2021/10/12 13:01:16;;;;;;;;;;;;;;;11.36;89.57;98836.63;5013525;28;1466;-64
2021/10/12 13:03:42;;;;;;;;;;;;;;;11.33;89.38;98836.72;4997129;28;1177;-61
2021/10/12 13:06:09;;;;;;;;;;;;;;;11.26;89.14;98831.34;5014691;28;803;-61
2021/10/12 13:08:37;;;;;;;;;;;;;;;11.19;89.03;98830.31;5014603;28;1890;-60
2021/10/12 13:11:06;;;;;;;;;;;;;;;11.18;89.52;98816.91;5014629;28;925;-59
2021/10/12 13:16:35;;;;;;;;;;;;;;;11.16;88.93;98825.66;5015254;28;1001;-60
2021/10/12 13:22:05;;;;;;;;;;;;;;;11.04;88.41;98821.56;5014308;28;1528;-60
2021/10/12 13:24:31;;;;;;;;;;;;;;;11.00;88.92;98829.16;5014312;28;885;-60
2021/10/12 13:26:57;;;;;;;;;;;;;;;10.95;89.33;98823.38;5014501;28;839;-60
2021/10/12 13:29:24;;;;;;;;;;;;;;;10.98;89.38;98825.25;5014476;28;1975;-60
2021/10/12 13:31:50;;;;;;;;;;;;;;;10.94;89.91;98827.31;5014271;28;807;-59
2021/10/12 13:34:17;;;;;;;;;;;;;;;10.90;90.20;98824.63;5014139;28;807;-60
2021/10/12 13:36:44;;;;;;;;;;;;;;;10.88;90.48;98820.75;5014113;28;807;-59
2021/10/12 13:39:11;;;;;;;;;;;;;;;10.85;90.06;98816.06;5014268;28;780;-59
2021/10/12 13:41:38;;;;;;;;;;;;;;;10.86;90.44;98823.94;5013996;28;862;-59
2021/10/12 13:44:05;;;;;;;;;;;;;;;10.90;90.38;98807.25;5014058;28;783;-59
2021/10/12 13:46:32;;;;;;;;;;;;;;;10.88;89.66;98795.84;5013192;28;842;-59
2021/10/12 13:48:58;;;;;;;;;;;;;;;10.88;89.49;98793.09;5013800;28;1890;-59
2021/10/12 13:51:24;;;;;;;;;;;;;;;10.89;89.17;98805.72;5013815;28;819;-59
2021/10/12 13:53:51;;;;;;;;;;;;;;;10.88;89.23;98801.38;5013859;28;807;-59
2021/10/12 13:56:17;;;;;;;;;;;;;;;10.83;88.80;98803.44;5013771;28;850;-59
2021/10/12 13:58:44;;;;;;;;;;;;;;;10.80;88.70;98798.78;5013779;28;823;-59
2021/10/12 14:01:11;;;;;;;;;;;;;;;10.79;89.41;98801.97;5013663;28;831;-59